createdAt,value
2022-12-04T00:00:31.012Z,0.00
2022-12-04T00:01:30.976Z,0.00
2022-12-04T00:02:30.960Z,0.00
2022-12-04T00:03:30.898Z,0.00
2022-12-04T00:04:30.888Z,0.00
2022-12-04T00:05:30.817Z,0.00
2022-12-04T00:06:30.774Z,0.00
2022-12-04T00:07:30.818Z,0.00
2022-12-04T00:08:30.702Z,0.00
2022-12-04T00:09:30.665Z,0.00
2022-12-04T00:10:30.617Z,0.00
2022-12-04T00:11:30.580Z,0.00
2022-12-04T00:12:30.542Z,0.00
2022-12-04T00:13:30.511Z,0.00
2022-12-04T00:14:30.475Z,0.00
2022-12-04T00:15:30.425Z,0.00
2022-12-04T00:16:30.578Z,0.00
2022-12-04T00:17:30.347Z,0.00
2022-12-04T00:18:30.327Z,0.00
2022-12-04T00:19:30.269Z,0.00
2022-12-04T00:20:30.229Z,0.00
2022-12-04T00:21:30.191Z,0.00
2022-12-04T00:22:30.155Z,0.00
2022-12-04T00:23:30.117Z,0.00
2022-12-04T00:24:30.079Z,0.00
2022-12-04T00:25:30.031Z,0.00
2022-12-04T00:26:29.999Z,0.00
2022-12-04T00:27:29.960Z,0.00
2022-12-04T00:28:29.918Z,0.00
2022-12-04T00:29:29.877Z,0.00
2022-12-04T00:30:29.862Z,0.00
2022-12-04T00:31:29.911Z,0.00
2022-12-04T00:32:29.760Z,0.00
2022-12-04T00:33:29.721Z,0.00
2022-12-04T00:34:29.678Z,0.00
2022-12-04T00:35:29.636Z,0.00
2022-12-04T00:36:29.601Z,0.00
2022-12-04T00:37:29.564Z,0.00
2022-12-04T00:38:29.521Z,0.00
2022-12-04T00:39:29.484Z,0.00
2022-12-04T00:40:29.449Z,0.00
2022-12-04T00:41:29.409Z,0.00
2022-12-04T00:42:29.365Z,0.00
2022-12-04T00:43:29.327Z,0.00
2022-12-04T00:44:29.284Z,0.00
2022-12-04T00:45:29.336Z,0.00
2022-12-04T00:46:29.266Z,0.00
2022-12-04T00:47:29.175Z,0.00
2022-12-04T00:48:29.132Z,0.00
2022-12-04T00:49:29.094Z,0.00
2022-12-04T00:50:29.052Z,0.00
2022-12-04T00:51:29.017Z,0.00
2022-12-04T00:52:28.975Z,0.00
2022-12-04T00:53:28.939Z,0.00
2022-12-04T00:54:28.896Z,0.00
2022-12-04T00:55:28.860Z,0.00
2022-12-04T00:56:28.816Z,0.00
2022-12-04T00:57:28.820Z,0.00
2022-12-04T00:58:28.737Z,0.00
2022-12-04T00:59:28.698Z,0.00
2022-12-04T01:00:28.658Z,0.00
2022-12-04T01:01:28.694Z,0.00
2022-12-04T01:02:28.597Z,0.00
2022-12-04T01:03:28.599Z,0.00
2022-12-04T01:04:28.501Z,0.00
2022-12-04T01:05:28.466Z,0.00
2022-12-04T01:06:28.422Z,0.00
2022-12-04T01:07:28.436Z,0.00
2022-12-04T01:08:28.383Z,0.00
2022-12-04T01:09:28.304Z,0.00
2022-12-04T01:10:28.273Z,0.00
2022-12-04T01:11:28.249Z,0.00
2022-12-04T01:12:28.284Z,0.00
2022-12-04T01:13:28.151Z,0.00
2022-12-04T01:14:28.155Z,0.00
2022-12-04T01:15:28.072Z,0.00
2022-12-04T01:16:28.130Z,0.00
2022-12-04T01:17:27.994Z,0.00
2022-12-04T01:18:27.954Z,0.00
2022-12-04T01:19:27.918Z,0.00
2022-12-04T01:20:27.875Z,0.00
2022-12-04T01:21:27.842Z,0.00
2022-12-04T01:22:27.793Z,0.00
2022-12-04T01:23:27.764Z,0.00
2022-12-04T01:24:27.724Z,0.00
2022-12-04T01:25:27.691Z,0.00
2022-12-04T01:26:27.642Z,0.00
2022-12-04T01:27:27.602Z,0.00
2022-12-04T01:28:27.585Z,0.00
2022-12-04T01:29:27.523Z,0.00
2022-12-04T01:30:27.484Z,0.00
2022-12-04T01:31:27.489Z,0.00
2022-12-04T01:32:27.403Z,0.00
2022-12-04T01:33:27.382Z,0.00
2022-12-04T01:34:27.329Z,0.00
2022-12-04T01:35:27.286Z,0.00
2022-12-04T01:36:27.244Z,0.00
2022-12-04T01:37:27.212Z,0.00
2022-12-04T01:38:27.172Z,0.00
2022-12-04T01:39:27.144Z,0.00
2022-12-04T01:40:27.089Z,0.00
2022-12-04T01:41:27.053Z,0.00
2022-12-04T01:42:27.017Z,0.00
2022-12-04T01:43:26.996Z,0.00
2022-12-04T01:44:26.944Z,0.00
2022-12-04T01:45:27.026Z,0.00
2022-12-04T01:46:26.975Z,0.00
2022-12-04T01:47:26.817Z,0.00
2022-12-04T01:48:26.779Z,0.00
2022-12-04T01:49:26.738Z,0.00
2022-12-04T01:50:26.703Z,0.00
2022-12-04T01:51:26.665Z,0.00
2022-12-04T01:52:26.618Z,0.00
2022-12-04T01:53:26.581Z,0.00
2022-12-04T01:54:26.541Z,0.00
2022-12-04T01:55:26.505Z,0.00
2022-12-04T01:56:26.462Z,0.00
2022-12-04T01:57:26.424Z,0.00
2022-12-04T01:58:26.390Z,0.00
2022-12-04T01:59:26.341Z,0.00
2022-12-04T02:00:26.315Z,0.00
2022-12-04T02:01:26.295Z,0.00
2022-12-04T02:02:26.362Z,0.00
2022-12-04T02:03:26.192Z,0.00
2022-12-04T02:04:26.147Z,0.00
2022-12-04T02:05:26.111Z,0.00
2022-12-04T02:06:26.067Z,0.00
2022-12-04T02:07:26.212Z,0.00
2022-12-04T02:08:26.002Z,0.00
2022-12-04T02:09:26.985Z,0.00
2022-12-04T02:10:25.910Z,0.00
2022-12-04T02:11:25.879Z,0.00
2022-12-04T02:12:25.864Z,0.00
2022-12-04T02:13:25.807Z,0.00
2022-12-04T02:14:25.760Z,0.00
2022-12-04T02:15:25.716Z,0.00
2022-12-04T02:16:25.737Z,0.00
2022-12-04T02:17:25.648Z,0.00
2022-12-04T02:18:25.607Z,0.00
2022-12-04T02:19:25.561Z,0.00
2022-12-04T02:20:25.523Z,0.00
2022-12-04T02:21:25.481Z,0.00
2022-12-04T02:22:25.438Z,0.00
2022-12-04T02:23:25.403Z,0.00
2022-12-04T02:24:25.364Z,0.00
2022-12-04T02:25:25.320Z,0.00
2022-12-04T02:26:25.282Z,0.00
2022-12-04T02:27:25.249Z,0.00
2022-12-04T02:28:25.204Z,0.00
2022-12-04T02:29:25.165Z,0.00
2022-12-04T02:30:25.183Z,0.00
2022-12-04T02:31:25.124Z,0.00
2022-12-04T02:32:25.056Z,0.00
2022-12-04T02:33:25.010Z,0.00
2022-12-04T02:34:24.973Z,0.00
2022-12-04T02:35:24.929Z,0.00
2022-12-04T02:36:24.887Z,0.00
2022-12-04T02:37:24.851Z,0.00
2022-12-04T02:38:24.809Z,0.00
2022-12-04T02:39:24.772Z,0.00
2022-12-04T02:40:24.752Z,0.00
2022-12-04T02:41:24.697Z,0.00
2022-12-04T02:42:24.659Z,0.00
2022-12-04T02:43:24.617Z,0.00
2022-12-04T02:44:24.580Z,0.00
2022-12-04T02:45:24.543Z,0.00
2022-12-04T02:46:24.525Z,0.00
2022-12-04T02:47:24.461Z,0.00
2022-12-04T02:48:24.425Z,0.00
2022-12-04T02:49:24.392Z,0.00
2022-12-04T02:50:24.363Z,0.00
2022-12-04T02:51:24.314Z,0.00
2022-12-04T02:52:24.262Z,0.00
2022-12-04T02:53:24.221Z,0.00
2022-12-04T02:54:24.187Z,0.00
2022-12-04T02:55:24.147Z,0.00
2022-12-04T02:56:24.104Z,0.00
2022-12-04T02:57:24.065Z,0.00
2022-12-04T02:58:24.023Z,0.00
2022-12-04T02:59:23.996Z,0.00
2022-12-04T03:00:23.945Z,0.00
2022-12-04T03:01:24.078Z,0.00
2022-12-04T03:02:23.927Z,0.00
2022-12-04T03:03:23.838Z,0.00
2022-12-04T03:04:23.887Z,0.00
2022-12-04T03:05:23.753Z,0.00
2022-12-04T03:06:23.714Z,0.00
2022-12-04T03:07:23.669Z,0.00
2022-12-04T03:08:23.637Z,0.00
2022-12-04T03:09:23.725Z,0.00
2022-12-04T03:10:23.554Z,0.00
2022-12-04T03:11:23.559Z,0.00
2022-12-04T03:12:23.482Z,0.00
2022-12-04T03:13:23.442Z,0.00
2022-12-04T03:14:23.399Z,0.00
2022-12-04T03:15:23.358Z,0.00
2022-12-04T03:16:23.424Z,0.00
2022-12-04T03:17:23.279Z,0.00
2022-12-04T03:18:23.244Z,0.00
2022-12-04T03:19:23.197Z,0.00
2022-12-04T03:20:23.165Z,0.00
2022-12-04T03:21:23.122Z,0.00
2022-12-04T03:22:23.085Z,0.00
2022-12-04T03:23:23.058Z,0.00
2022-12-04T03:24:23.009Z,0.00
2022-12-04T03:25:22.960Z,0.00
2022-12-04T03:26:22.925Z,0.00
2022-12-04T03:27:22.888Z,0.00
2022-12-04T03:28:22.853Z,0.00
2022-12-04T03:29:22.809Z,0.00
2022-12-04T03:30:22.766Z,0.00
2022-12-04T03:31:22.759Z,0.00
2022-12-04T03:32:22.694Z,0.00
2022-12-04T03:33:22.646Z,0.00
2022-12-04T03:34:22.617Z,0.00
2022-12-04T03:35:22.571Z,0.00
2022-12-04T03:36:22.538Z,0.00
2022-12-04T03:37:22.490Z,0.00
2022-12-04T03:38:22.452Z,0.00
2022-12-04T03:39:22.414Z,0.00
2022-12-04T03:40:22.377Z,0.00
2022-12-04T03:41:22.335Z,0.00
2022-12-04T03:42:22.299Z,0.00
2022-12-04T03:43:22.257Z,0.00
2022-12-04T03:44:22.214Z,0.00
2022-12-04T03:45:22.174Z,0.00
2022-12-04T03:46:22.184Z,0.00
2022-12-04T03:47:22.106Z,0.00
2022-12-04T03:48:23.393Z,0.00
2022-12-04T03:49:22.018Z,0.00
2022-12-04T03:50:21.983Z,0.00
2022-12-04T03:51:21.956Z,0.00
2022-12-04T03:52:21.915Z,0.00
2022-12-04T03:53:21.862Z,0.00
2022-12-04T03:54:21.825Z,0.00
2022-12-04T03:55:21.790Z,0.00
2022-12-04T03:56:21.754Z,0.00
2022-12-04T03:57:21.702Z,0.00
2022-12-04T03:58:21.679Z,0.00
2022-12-04T03:59:21.626Z,0.00
2022-12-04T04:00:21.588Z,0.00
2022-12-04T04:01:21.597Z,0.00
2022-12-04T04:02:21.547Z,0.00
2022-12-04T04:03:21.468Z,0.00
2022-12-04T04:04:21.436Z,0.00
2022-12-04T04:05:21.384Z,0.00
2022-12-04T04:06:21.348Z,0.00
2022-12-04T04:07:21.325Z,0.00
2022-12-04T04:08:21.395Z,0.00
2022-12-04T04:09:21.230Z,0.00
2022-12-04T04:10:21.191Z,0.00
2022-12-04T04:11:21.159Z,0.00
2022-12-04T04:12:21.118Z,0.00
2022-12-04T04:13:21.073Z,0.00
2022-12-04T04:14:21.031Z,0.00
2022-12-04T04:15:21.001Z,0.00
2022-12-04T04:16:21.038Z,0.00
2022-12-04T04:17:20.915Z,0.00
2022-12-04T04:18:20.880Z,0.00
2022-12-04T04:19:20.841Z,0.00
2022-12-04T04:20:20.796Z,0.00
2022-12-04T04:21:20.759Z,0.00
2022-12-04T04:22:20.718Z,0.00
2022-12-04T04:23:20.679Z,0.00
2022-12-04T04:24:20.652Z,0.00
2022-12-04T04:25:20.599Z,0.00
2022-12-04T04:26:20.560Z,0.00
2022-12-04T04:27:20.528Z,0.00
2022-12-04T04:28:20.480Z,0.00
2022-12-04T04:29:20.443Z,0.00
2022-12-04T04:30:20.403Z,0.00
2022-12-04T04:31:20.389Z,0.00
2022-12-04T04:32:20.330Z,0.00
2022-12-04T04:33:20.284Z,0.00
2022-12-04T04:34:20.247Z,0.00
2022-12-04T04:35:20.210Z,0.00
2022-12-04T04:36:20.166Z,0.00
2022-12-04T04:37:20.126Z,0.00
2022-12-04T04:38:20.104Z,0.00
2022-12-04T04:39:20.050Z,0.00
2022-12-04T04:40:20.017Z,0.00
2022-12-04T04:41:19.970Z,0.00
2022-12-04T04:42:19.930Z,0.00
2022-12-04T04:43:19.888Z,0.00
2022-12-04T04:44:19.851Z,0.00
2022-12-04T04:45:19.812Z,0.00
2022-12-04T04:46:19.807Z,0.00
2022-12-04T04:47:19.734Z,0.00
2022-12-04T04:48:19.694Z,0.00
2022-12-04T04:49:19.656Z,0.00
2022-12-04T04:50:19.612Z,0.00
2022-12-04T04:51:19.573Z,0.00
2022-12-04T04:52:19.538Z,0.00
2022-12-04T04:53:19.494Z,0.00
2022-12-04T04:54:19.453Z,0.00
2022-12-04T04:55:19.416Z,0.00
2022-12-04T04:56:19.380Z,0.00
2022-12-04T04:57:19.339Z,0.00
2022-12-04T04:58:19.306Z,0.00
2022-12-04T04:59:19.260Z,0.00
2022-12-04T05:00:19.218Z,0.00
2022-12-04T05:01:19.232Z,0.00
2022-12-04T05:02:19.141Z,0.00
2022-12-04T05:03:19.148Z,0.00
2022-12-04T05:04:19.060Z,0.00
2022-12-04T05:05:19.016Z,0.00
2022-12-04T05:06:18.986Z,0.00
2022-12-04T05:07:18.950Z,0.00
2022-12-04T05:08:18.975Z,0.00
2022-12-04T05:09:18.866Z,0.00
2022-12-04T05:10:18.828Z,0.00
2022-12-04T05:11:18.782Z,0.00
2022-12-04T05:12:18.765Z,0.00
2022-12-04T05:13:18.706Z,0.00
2022-12-04T05:14:18.667Z,0.00
2022-12-04T05:15:18.627Z,0.00
2022-12-04T05:16:18.740Z,0.00
2022-12-04T05:17:18.549Z,0.00
2022-12-04T05:18:18.516Z,0.00
2022-12-04T05:19:18.465Z,0.00
2022-12-04T05:20:18.448Z,0.00
2022-12-04T05:21:18.389Z,0.00
2022-12-04T05:22:18.347Z,0.00
2022-12-04T05:23:18.307Z,0.00
2022-12-04T05:24:18.273Z,0.00
2022-12-04T05:25:18.230Z,0.00
2022-12-04T05:26:18.190Z,0.00
2022-12-04T05:27:18.151Z,0.00
2022-12-04T05:28:18.135Z,0.00
2022-12-04T05:29:18.070Z,0.00
2022-12-04T05:30:18.038Z,0.00
2022-12-04T05:31:18.042Z,0.00
2022-12-04T05:32:17.955Z,0.00
2022-12-04T05:33:17.916Z,0.00
2022-12-04T05:34:17.878Z,0.00
2022-12-04T05:35:17.844Z,0.00
2022-12-04T05:36:17.807Z,0.00
2022-12-04T05:37:17.754Z,0.00
2022-12-04T05:38:17.711Z,0.00
2022-12-04T05:39:17.671Z,0.00
2022-12-04T05:40:17.663Z,0.00
2022-12-04T05:41:17.597Z,0.00
2022-12-04T05:42:17.556Z,0.00
2022-12-04T05:43:17.518Z,0.00
2022-12-04T05:44:17.484Z,0.00
2022-12-04T05:45:17.432Z,0.00
2022-12-04T05:46:17.430Z,0.00
2022-12-04T05:47:17.366Z,0.00
2022-12-04T05:48:17.324Z,0.00
2022-12-04T05:49:17.288Z,0.00
2022-12-04T05:50:17.248Z,0.00
2022-12-04T05:51:17.207Z,0.00
2022-12-04T05:52:17.165Z,0.00
2022-12-04T05:53:17.124Z,0.00
2022-12-04T05:54:17.079Z,0.00
2022-12-04T05:55:17.042Z,0.00
2022-12-04T05:56:17.003Z,0.00
2022-12-04T05:57:16.970Z,0.00
2022-12-04T05:58:16.926Z,0.00
2022-12-04T05:59:16.884Z,0.00
2022-12-04T06:00:16.863Z,0.00
2022-12-04T06:01:16.807Z,0.00
2022-12-04T06:02:16.834Z,0.00
2022-12-04T06:03:16.835Z,0.00
2022-12-04T06:04:16.691Z,0.00
2022-12-04T06:05:16.646Z,0.00
2022-12-04T06:06:21.401Z,0.00
2022-12-04T06:07:16.565Z,0.00
2022-12-04T06:08:16.616Z,0.00
2022-12-04T06:09:16.499Z,0.00
2022-12-04T06:10:16.452Z,0.00
2022-12-04T06:11:16.409Z,0.00
2022-12-04T06:12:16.368Z,0.00
2022-12-04T06:13:16.328Z,0.00
2022-12-04T06:14:16.290Z,0.00
2022-12-04T06:15:16.345Z,0.00
2022-12-04T06:16:16.265Z,0.00
2022-12-04T06:17:16.179Z,0.00
2022-12-04T06:18:16.131Z,0.00
2022-12-04T06:19:16.090Z,0.00
2022-12-04T06:20:16.109Z,0.00
2022-12-04T06:21:16.009Z,0.00
2022-12-04T06:22:15.975Z,0.00
2022-12-04T06:23:15.937Z,0.00
2022-12-04T06:24:15.899Z,0.00
2022-12-04T06:25:15.857Z,0.00
2022-12-04T06:26:15.816Z,0.00
2022-12-04T06:27:31.196Z,0.00
2022-12-04T06:28:15.737Z,0.00
2022-12-04T06:29:15.699Z,0.00
2022-12-04T06:30:15.665Z,0.00
2022-12-04T06:31:15.677Z,0.00
2022-12-04T06:32:21.198Z,0.00
2022-12-04T06:33:15.536Z,0.00
2022-12-04T06:34:15.501Z,0.00
2022-12-04T06:35:15.463Z,0.00
2022-12-04T06:36:15.420Z,0.00
2022-12-04T06:37:15.383Z,0.00
2022-12-04T06:38:15.353Z,0.00
2022-12-04T06:39:18.693Z,0.00
2022-12-04T06:40:15.259Z,0.00
2022-12-04T06:41:15.234Z,0.00
2022-12-04T06:42:15.181Z,0.00
2022-12-04T06:43:15.147Z,0.00
2022-12-04T06:44:15.103Z,0.00
2022-12-04T06:45:15.063Z,0.00
2022-12-04T06:46:15.077Z,0.00
2022-12-04T06:47:14.981Z,0.00
2022-12-04T06:48:14.953Z,0.00
2022-12-04T06:49:14.910Z,0.00
2022-12-04T06:50:14.868Z,0.00
2022-12-04T06:51:14.831Z,0.00
2022-12-04T06:52:14.785Z,0.00
2022-12-04T06:53:14.755Z,0.00
2022-12-04T06:54:14.711Z,0.00
2022-12-04T06:55:14.666Z,0.00
2022-12-04T06:56:14.628Z,0.00
2022-12-04T06:57:14.589Z,0.00
2022-12-04T06:58:14.546Z,0.00
2022-12-04T06:59:14.507Z,0.00
2022-12-04T07:00:14.473Z,0.00
2022-12-04T07:01:14.488Z,0.00
2022-12-04T07:02:14.441Z,0.00
2022-12-04T07:03:14.350Z,0.00
2022-12-04T07:04:14.321Z,4.00
2022-12-04T07:05:14.266Z,4.00
2022-12-04T07:06:14.254Z,4.00
2022-12-04T07:07:14.187Z,4.00
2022-12-04T07:08:14.243Z,4.00
2022-12-04T07:09:14.118Z,0.00
2022-12-04T07:10:14.074Z,0.00
2022-12-04T07:11:14.033Z,4.00
2022-12-04T07:12:13.997Z,4.00
2022-12-04T07:13:13.961Z,4.00
2022-12-04T07:14:13.919Z,4.00
2022-12-04T07:15:13.872Z,8.00
2022-12-04T07:16:13.905Z,8.00
2022-12-04T07:17:13.872Z,4.00
2022-12-04T07:18:13.755Z,4.00
2022-12-04T07:19:13.899Z,8.00
2022-12-04T07:20:13.680Z,8.00
2022-12-04T07:21:13.637Z,8.00
2022-12-04T07:22:13.601Z,8.00
2022-12-04T07:23:13.559Z,12.00
2022-12-04T07:24:13.516Z,12.00
2022-12-04T07:25:13.479Z,12.00
2022-12-04T07:26:13.439Z,12.00
2022-12-04T07:27:13.399Z,12.00
2022-12-04T07:28:13.355Z,16.00
2022-12-04T07:29:13.318Z,16.00
2022-12-04T07:30:15.835Z,12.00
2022-12-04T07:31:13.322Z,16.00
2022-12-04T07:32:13.223Z,16.00
2022-12-04T07:33:13.164Z,20.00
2022-12-04T07:34:13.120Z,16.00
2022-12-04T07:35:13.085Z,20.00
2022-12-04T07:36:13.044Z,24.00
2022-12-04T07:37:13.001Z,20.00
2022-12-04T07:38:12.961Z,24.00
2022-12-04T07:39:12.923Z,24.00
2022-12-04T07:40:12.878Z,28.00
2022-12-04T07:41:12.847Z,24.00
2022-12-04T07:42:12.816Z,24.00
2022-12-04T07:43:12.764Z,28.00
2022-12-04T07:44:12.724Z,28.00
2022-12-04T07:45:12.684Z,28.00
2022-12-04T07:46:12.663Z,32.00
2022-12-04T07:47:12.608Z,32.00
2022-12-04T07:48:12.565Z,32.00
2022-12-04T07:49:12.522Z,36.00
2022-12-04T07:50:12.486Z,36.00
2022-12-04T07:51:12.445Z,32.00
2022-12-04T07:52:12.420Z,36.00
2022-12-04T07:53:12.367Z,40.00
2022-12-04T07:54:12.323Z,40.00
2022-12-04T07:55:12.281Z,40.00
2022-12-04T07:56:12.249Z,40.00
2022-12-04T07:57:12.205Z,44.00
2022-12-04T07:58:12.164Z,44.00
2022-12-04T07:59:12.141Z,44.00
2022-12-04T08:00:12.088Z,48.00
2022-12-04T08:01:12.117Z,48.00
2022-12-04T08:02:12.011Z,48.00
2022-12-04T08:03:11.969Z,48.00
2022-12-04T08:04:11.946Z,52.00
2022-12-04T08:05:11.887Z,52.00
2022-12-04T08:06:11.852Z,52.00
2022-12-04T08:07:11.807Z,52.00
2022-12-04T08:08:11.820Z,52.00
2022-12-04T08:09:11.730Z,52.00
2022-12-04T08:10:11.696Z,56.00
2022-12-04T08:11:11.648Z,52.00
2022-12-04T08:12:11.636Z,56.00
2022-12-04T08:13:11.567Z,56.00
2022-12-04T08:14:11.526Z,56.00
2022-12-04T08:15:11.490Z,56.00
2022-12-04T08:16:11.449Z,60.00
2022-12-04T08:17:11.457Z,60.00
2022-12-04T08:18:11.370Z,64.00
2022-12-04T08:19:11.331Z,64.00
2022-12-04T08:20:11.290Z,68.00
2022-12-04T08:21:11.251Z,68.00
2022-12-04T08:22:11.212Z,72.00
2022-12-04T08:23:11.174Z,72.00
2022-12-04T08:24:11.137Z,72.00
2022-12-04T08:25:11.093Z,72.00
2022-12-04T08:26:11.051Z,76.00
2022-12-04T08:27:11.012Z,76.00
2022-12-04T08:28:10.973Z,80.00
2022-12-04T08:29:10.932Z,84.00
2022-12-04T08:30:10.891Z,88.00
2022-12-04T08:31:10.905Z,92.00
2022-12-04T08:32:10.812Z,88.00
2022-12-04T08:33:10.773Z,92.00
2022-12-04T08:34:10.731Z,96.00
2022-12-04T08:35:10.693Z,100.00
2022-12-04T08:36:10.681Z,108.00
2022-12-04T08:37:10.612Z,116.00
2022-12-04T08:38:10.571Z,116.00
2022-12-04T08:39:10.536Z,120.00
2022-12-04T08:40:10.500Z,124.00
2022-12-04T08:41:10.453Z,124.00
2022-12-04T08:42:10.412Z,128.00
2022-12-04T08:43:10.377Z,128.00
2022-12-04T08:44:10.329Z,132.00
2022-12-04T08:45:10.323Z,136.00
2022-12-04T08:46:10.411Z,136.00
2022-12-04T08:47:10.213Z,140.00
2022-12-04T08:48:10.185Z,144.00
2022-12-04T08:49:10.139Z,144.00
2022-12-04T08:50:10.094Z,144.00
2022-12-04T08:51:10.066Z,140.00
2022-12-04T08:52:10.031Z,140.00
2022-12-04T08:53:09.980Z,144.00
2022-12-04T08:54:09.934Z,148.00
2022-12-04T08:55:09.896Z,148.00
2022-12-04T08:56:09.862Z,152.00
2022-12-04T08:57:09.815Z,152.00
2022-12-04T08:58:09.776Z,152.00
2022-12-04T08:59:09.737Z,156.00
2022-12-04T09:00:09.695Z,164.00
2022-12-04T09:01:09.720Z,168.00
2022-12-04T09:02:09.666Z,164.00
2022-12-04T09:03:09.575Z,164.00
2022-12-04T09:04:09.593Z,164.00
2022-12-04T09:05:09.502Z,164.00
2022-12-04T09:06:09.458Z,164.00
2022-12-04T09:07:09.415Z,172.00
2022-12-04T09:08:09.462Z,168.00
2022-12-04T09:09:09.341Z,172.00
2022-12-04T09:10:09.321Z,168.00
2022-12-04T09:11:09.259Z,168.00
2022-12-04T09:12:09.231Z,168.00
2022-12-04T09:13:09.180Z,168.00
2022-12-04T09:14:09.169Z,168.00
2022-12-04T09:15:09.105Z,172.00
2022-12-04T09:16:09.151Z,168.00
2022-12-04T09:17:09.061Z,168.00
2022-12-04T09:18:08.983Z,164.00
2022-12-04T09:19:08.940Z,160.00
2022-12-04T09:20:08.924Z,156.00
2022-12-04T09:21:08.865Z,156.00
2022-12-04T09:22:08.823Z,152.00
2022-12-04T09:23:08.783Z,152.00
2022-12-04T09:24:08.740Z,148.00
2022-12-04T09:25:08.701Z,148.00
2022-12-04T09:26:08.661Z,152.00
2022-12-04T09:27:14.334Z,156.00
2022-12-04T09:28:08.587Z,156.00
2022-12-04T09:29:08.540Z,160.00
2022-12-04T09:30:08.504Z,168.00
2022-12-04T09:31:08.559Z,176.00
2022-12-04T09:32:08.459Z,176.00
2022-12-04T09:33:08.389Z,172.00
2022-12-04T09:34:08.368Z,176.00
2022-12-04T09:35:08.309Z,180.00
2022-12-04T09:36:08.273Z,184.00
2022-12-04T09:37:08.226Z,196.00
2022-12-04T09:38:08.184Z,204.00
2022-12-04T09:39:08.140Z,220.00
2022-12-04T09:40:08.107Z,224.00
2022-12-04T09:41:08.067Z,220.00
2022-12-04T09:42:08.030Z,220.00
2022-12-04T09:43:07.987Z,220.00
2022-12-04T09:44:07.950Z,232.00
2022-12-04T09:45:07.904Z,236.00
2022-12-04T09:46:07.935Z,236.00
2022-12-04T09:47:07.916Z,244.00
2022-12-04T09:48:07.782Z,244.00
2022-12-04T09:49:07.754Z,256.00
2022-12-04T09:50:07.718Z,252.00
2022-12-04T09:51:07.670Z,248.00
2022-12-04T09:52:07.642Z,260.00
2022-12-04T09:53:07.594Z,288.00
2022-12-04T09:54:07.547Z,300.00
2022-12-04T09:55:07.512Z,300.00
2022-12-04T09:56:07.470Z,284.00
2022-12-04T09:57:07.429Z,300.00
2022-12-04T09:58:07.390Z,304.00
2022-12-04T09:59:07.359Z,304.00
2022-12-04T10:00:07.318Z,312.00
2022-12-04T10:01:07.273Z,316.00
2022-12-04T10:02:07.290Z,316.00
2022-12-04T10:03:07.352Z,308.00
2022-12-04T10:04:07.209Z,308.00
2022-12-04T10:05:07.111Z,320.00
2022-12-04T10:06:07.067Z,304.00
2022-12-04T10:07:07.050Z,284.00
2022-12-04T10:08:07.111Z,288.00
2022-12-04T10:09:06.956Z,288.00
2022-12-04T10:10:06.909Z,292.00
2022-12-04T10:11:06.868Z,280.00
2022-12-04T10:12:06.834Z,272.00
2022-12-04T10:13:06.814Z,256.00
2022-12-04T10:14:06.759Z,260.00
2022-12-04T10:15:06.726Z,276.00
2022-12-04T10:16:06.755Z,276.00
2022-12-04T10:17:06.638Z,276.00
2022-12-04T10:18:06.597Z,292.00
2022-12-04T10:19:06.553Z,296.00
2022-12-04T10:20:06.510Z,308.00
2022-12-04T10:21:06.474Z,304.00
2022-12-04T10:22:06.438Z,300.00
2022-12-04T10:23:10.623Z,292.00
2022-12-04T10:24:06.355Z,280.00
2022-12-04T10:25:06.327Z,268.00
2022-12-04T10:26:06.282Z,272.00
2022-12-04T10:27:06.239Z,296.00
2022-12-04T10:28:06.200Z,316.00
2022-12-04T10:29:06.162Z,328.00
2022-12-04T10:30:06.116Z,340.00
2022-12-04T10:31:06.202Z,344.00
2022-12-04T10:32:06.048Z,344.00
2022-12-04T10:33:06.007Z,348.00
2022-12-04T10:34:05.962Z,336.00
2022-12-04T10:35:05.919Z,336.00
2022-12-04T10:36:05.886Z,332.00
2022-12-04T10:37:05.842Z,320.00
2022-12-04T10:38:05.803Z,308.00
2022-12-04T10:39:05.774Z,292.00
2022-12-04T10:40:05.719Z,284.00
2022-12-04T10:41:08.830Z,268.00
2022-12-04T10:42:05.640Z,260.00
2022-12-04T10:43:05.608Z,268.00
2022-12-04T10:44:05.562Z,280.00
2022-12-04T10:45:05.521Z,288.00
2022-12-04T10:46:05.517Z,284.00
2022-12-04T10:47:05.521Z,268.00
2022-12-04T10:48:05.424Z,252.00
2022-12-04T10:49:05.365Z,248.00
2022-12-04T10:50:05.326Z,252.00
2022-12-04T10:51:05.291Z,276.00
2022-12-04T10:52:05.247Z,288.00
2022-12-04T10:53:08.276Z,304.00
2022-12-04T10:54:05.170Z,288.00
2022-12-04T10:55:05.135Z,268.00
2022-12-04T10:56:05.093Z,248.00
2022-12-04T10:57:05.050Z,228.00
2022-12-04T10:58:05.008Z,212.00
2022-12-04T10:59:05.012Z,216.00
2022-12-04T11:00:04.931Z,208.00
2022-12-04T11:01:04.895Z,212.00
2022-12-04T11:02:07.281Z,236.00
2022-12-04T11:03:04.837Z,264.00
2022-12-04T11:04:04.774Z,240.00
2022-12-04T11:05:04.728Z,232.00
2022-12-04T11:06:04.693Z,228.00
2022-12-04T11:07:04.649Z,244.00
2022-12-04T11:08:04.721Z,252.00
2022-12-04T11:09:04.575Z,268.00
2022-12-04T11:10:04.527Z,276.00
2022-12-04T11:11:04.500Z,280.00
2022-12-04T11:12:04.463Z,280.00
2022-12-04T11:13:04.421Z,280.00
2022-12-04T11:14:04.382Z,288.00
2022-12-04T11:15:04.333Z,292.00
2022-12-04T11:16:04.334Z,288.00
2022-12-04T11:17:04.252Z,284.00
2022-12-04T11:18:04.214Z,276.00
2022-12-04T11:19:04.171Z,268.00
2022-12-04T11:20:04.140Z,248.00
2022-12-04T11:21:04.099Z,244.00
2022-12-04T11:22:04.056Z,256.00
2022-12-04T11:23:04.018Z,272.00
2022-12-04T11:24:03.977Z,260.00
2022-12-04T11:25:03.960Z,276.00
2022-12-04T11:26:06.225Z,284.00
2022-12-04T11:27:03.860Z,272.00
2022-12-04T11:28:03.822Z,272.00
2022-12-04T11:29:03.784Z,284.00
2022-12-04T11:30:03.748Z,292.00
2022-12-04T11:31:03.734Z,292.00
2022-12-04T11:32:07.442Z,288.00
2022-12-04T11:33:03.629Z,284.00
2022-12-04T11:34:03.583Z,284.00
2022-12-04T11:35:03.540Z,292.00
2022-12-04T11:36:03.512Z,288.00
2022-12-04T11:37:03.464Z,284.00
2022-12-04T11:38:03.425Z,276.00
2022-12-04T11:39:03.385Z,276.00
2022-12-04T11:40:03.346Z,276.00
2022-12-04T11:41:03.310Z,272.00
2022-12-04T11:42:03.273Z,272.00
2022-12-04T11:43:03.229Z,268.00
2022-12-04T11:44:03.189Z,268.00
2022-12-04T11:45:03.153Z,264.00
2022-12-04T11:46:03.136Z,264.00
2022-12-04T11:47:03.149Z,260.00
2022-12-04T11:48:03.036Z,260.00
2022-12-04T11:49:02.996Z,260.00
2022-12-04T11:50:02.960Z,256.00
2022-12-04T11:51:02.915Z,256.00
2022-12-04T11:52:02.883Z,256.00
2022-12-04T11:53:02.854Z,252.00
2022-12-04T11:54:02.802Z,248.00
2022-12-04T11:55:02.754Z,244.00
2022-12-04T11:56:02.719Z,244.00
2022-12-04T11:57:02.680Z,244.00
2022-12-04T11:58:02.638Z,244.00
2022-12-04T11:59:02.607Z,252.00
2022-12-04T12:00:02.562Z,260.00
2022-12-04T12:01:02.514Z,268.00
2022-12-04T12:02:02.580Z,272.00
2022-12-04T12:03:02.545Z,276.00
2022-12-04T12:04:02.398Z,280.00
2022-12-04T12:05:02.356Z,288.00
2022-12-04T12:06:02.323Z,304.00
2022-12-04T12:07:02.284Z,316.00
2022-12-04T12:08:03.236Z,332.00
2022-12-04T12:09:02.199Z,340.00
2022-12-04T12:10:02.165Z,340.00
2022-12-04T12:11:02.128Z,332.00
2022-12-04T12:12:02.105Z,324.00
2022-12-04T12:13:02.044Z,312.00
2022-12-04T12:14:02.002Z,308.00
2022-12-04T12:15:01.978Z,300.00
2022-12-04T12:16:02.007Z,284.00
2022-12-04T12:17:01.894Z,272.00
2022-12-04T12:18:01.848Z,256.00
2022-12-04T12:19:01.818Z,240.00
2022-12-04T12:20:01.764Z,236.00
2022-12-04T12:21:01.730Z,220.00
2022-12-04T12:22:05.223Z,208.00
2022-12-04T12:23:01.657Z,188.00
2022-12-04T12:24:01.616Z,172.00
2022-12-04T12:25:01.569Z,156.00
2022-12-04T12:26:01.536Z,156.00
2022-12-04T12:27:01.512Z,156.00
2022-12-04T12:28:01.449Z,164.00
2022-12-04T12:29:01.411Z,160.00
2022-12-04T12:30:01.376Z,152.00
2022-12-04T12:31:05.790Z,136.00
2022-12-04T12:32:01.363Z,128.00
2022-12-04T12:33:01.259Z,124.00
2022-12-04T12:34:01.213Z,124.00
2022-12-04T12:35:01.182Z,128.00
2022-12-04T12:36:01.136Z,128.00
2022-12-04T12:37:01.259Z,136.00
2022-12-04T12:38:01.055Z,148.00
2022-12-04T12:39:01.024Z,156.00
2022-12-04T12:40:00.989Z,168.00
2022-12-04T12:41:00.934Z,176.00
2022-12-04T12:42:00.895Z,180.00
2022-12-04T12:43:00.916Z,184.00
2022-12-04T12:44:00.818Z,188.00
2022-12-04T12:45:00.779Z,192.00
2022-12-04T12:46:00.791Z,192.00
2022-12-04T12:47:00.708Z,188.00
2022-12-04T12:48:00.674Z,180.00
2022-12-04T12:49:00.629Z,172.00
2022-12-04T12:50:00.584Z,164.00
2022-12-04T12:51:21.908Z,156.00
2022-12-04T12:52:00.504Z,152.00
2022-12-04T12:53:00.474Z,152.00
2022-12-04T12:54:00.430Z,152.00
2022-12-04T12:55:00.396Z,152.00
2022-12-04T12:56:00.353Z,152.00
2022-12-04T12:57:00.310Z,160.00
2022-12-04T12:58:00.269Z,164.00